createdAt,value
2022-08-05T00:02:52.595Z,16.50
2022-08-05T00:08:00.863Z,13.13
2022-08-05T00:13:04.699Z,12.75
2022-08-05T00:18:08.034Z,13.57
2022-08-05T00:23:13.017Z,11.30
2022-08-05T00:28:21.117Z,13.82
2022-08-05T00:34:56.659Z,12.75
2022-08-05T00:38:59.489Z,15.38
2022-08-05T00:44:03.826Z,17.45
2022-08-05T00:49:08.677Z,17.88
2022-08-05T00:54:18.216Z,14.82
2022-08-05T00:59:21.865Z,18.73
2022-08-05T01:04:27.028Z,11.68
2022-08-05T01:09:33.729Z,15.57
2022-08-05T01:14:48.318Z,12.50
2022-08-05T01:20:01.118Z,17.90
2022-08-05T01:25:40.976Z,12.98
2022-08-05T01:31:07.997Z,14.70
2022-08-05T01:36:16.188Z,16.42
2022-08-05T01:41:25.490Z,14.10
2022-08-05T01:46:41.364Z,13.75
2022-08-05T01:51:51.791Z,14.15
2022-08-05T01:58:29.946Z,12.88
2022-08-05T02:02:28.528Z,11.68
2022-08-05T02:07:38.166Z,13.95
2022-08-05T02:13:02.706Z,18.42
2022-08-05T02:18:33.296Z,10.35
2022-08-05T02:23:41.557Z,15.48
2022-08-05T02:28:48.920Z,15.68
2022-08-05T02:34:15.047Z,11.63
2022-08-05T02:39:21.736Z,13.70
2022-08-05T02:44:28.068Z,13.60
2022-08-05T02:49:35.916Z,14.20
2022-08-05T02:54:52.176Z,21.45
2022-08-05T02:59:56.190Z,14.65
2022-08-05T03:05:01.353Z,14.52
2022-08-05T03:10:07.360Z,13.30
2022-08-05T03:15:12.299Z,14.30
2022-08-05T03:20:16.158Z,11.90
2022-08-05T03:25:33.533Z,15.25
2022-08-05T03:30:46.643Z,12.70
2022-08-05T03:35:51.813Z,12.68
2022-08-05T03:40:55.360Z,11.43
2022-08-05T03:46:01.281Z,14.98
2022-08-05T03:52:38.697Z,11.73
2022-08-05T03:56:46.565Z,13.95
2022-08-05T04:01:53.937Z,11.50
2022-08-05T04:12:23.870Z,11.65
2022-08-05T04:17:36.389Z,15.50
2022-08-05T04:22:52.858Z,11.65
2022-08-05T04:27:57.298Z,8.80
2022-08-05T04:33:02.500Z,10.70
2022-08-05T04:38:11.660Z,9.80
2022-08-05T04:43:21.962Z,11.85
2022-08-05T04:48:28.458Z,11.30
2022-08-05T04:53:33.354Z,11.25
2022-08-05T04:58:39.089Z,9.30
2022-08-05T05:03:45.306Z,11.10
2022-08-05T05:08:50.049Z,13.30
2022-08-05T05:13:55.277Z,10.63
2022-08-05T05:19:18.619Z,11.25
2022-08-05T05:24:22.993Z,11.75
2022-08-05T05:30:04.209Z,10.52
2022-08-05T05:35:09.590Z,15.60
2022-08-05T05:40:15.984Z,11.25
2022-08-05T05:45:20.530Z,11.73
2022-08-05T05:50:24.270Z,20.83
2022-08-05T05:55:52.511Z,15.32
2022-08-05T06:00:52.573Z,10.90
2022-08-05T06:05:55.876Z,9.05
2022-08-05T06:11:00.560Z,14.27
2022-08-05T06:16:31.503Z,21.80
2022-08-05T06:21:36.799Z,18.80
2022-08-05T06:26:51.021Z,18.63
2022-08-05T06:31:55.039Z,12.15
2022-08-05T06:37:08.347Z,8.38
2022-08-05T06:42:11.867Z,8.15
2022-08-05T06:48:11.699Z,8.93
2022-08-05T06:52:40.467Z,8.40
2022-08-05T06:58:03.305Z,13.27
2022-08-05T07:03:11.981Z,13.85
2022-08-05T07:08:15.683Z,11.43
2022-08-05T07:13:57.089Z,9.60
2022-08-05T07:18:47.769Z,5.45
2022-08-05T07:23:52.241Z,10.52
2022-08-05T07:28:55.875Z,13.10
2022-08-05T07:33:59.938Z,18.00
2022-08-05T07:39:06.641Z,19.42
2022-08-05T07:44:27.981Z,15.20
2022-08-05T07:49:32.337Z,8.95
2022-08-05T07:54:49.282Z,6.43
2022-08-05T07:59:53.643Z,7.90
2022-08-05T08:04:57.526Z,6.57
2022-08-05T08:10:02.614Z,8.48
2022-08-05T08:15:13.912Z,10.52
2022-08-05T08:20:44.657Z,5.65
2022-08-05T08:25:59.774Z,12.77
2022-08-05T08:31:08.029Z,8.10
2022-08-05T08:36:38.404Z,8.18
2022-08-05T08:41:52.275Z,10.07
2022-08-05T08:47:03.933Z,9.23
2022-08-05T08:52:30.728Z,8.23
2022-08-05T08:57:42.327Z,8.57
2022-08-05T09:03:01.150Z,7.65
2022-08-05T09:08:04.785Z,5.72
2022-08-05T09:13:08.324Z,11.27
2022-08-05T09:18:13.397Z,10.38
2022-08-05T09:23:21.533Z,10.23
2022-08-05T09:28:31.469Z,6.93
2022-08-05T09:33:49.256Z,7.63
2022-08-05T09:39:18.056Z,5.43
2022-08-05T09:44:35.943Z,9.77
2022-08-05T09:50:01.408Z,9.48
2022-08-05T09:55:56.964Z,7.43
2022-08-05T10:00:31.684Z,10.50
2022-08-05T10:05:35.588Z,8.68
2022-08-05T10:10:44.458Z,7.90
2022-08-05T10:15:48.675Z,7.63
2022-08-05T10:20:56.379Z,8.30
2022-08-05T10:26:02.261Z,10.88
2022-08-05T10:32:54.721Z,7.53
2022-08-05T10:36:38.241Z,7.23
2022-08-05T10:42:11.437Z,6.53
2022-08-05T10:47:26.530Z,7.85
2022-08-05T10:52:40.068Z,6.25
2022-08-05T10:58:15.620Z,6.47
2022-08-05T11:03:23.063Z,7.93
2022-08-05T11:08:37.951Z,6.18
2022-08-05T11:13:54.721Z,6.03
2022-08-05T11:20:17.095Z,8.98
2022-08-05T11:26:06.222Z,7.88
2022-08-05T11:30:58.266Z,11.07
2022-08-05T11:36:07.980Z,6.53
2022-08-05T11:41:54.347Z,9.45
2022-08-05T11:47:09.597Z,8.13
2022-08-05T11:52:29.244Z,12.23
2022-08-05T11:58:08.639Z,9.52
2022-08-05T12:03:28.695Z,7.40
2022-08-05T12:08:33.898Z,6.72
2022-08-05T12:13:48.478Z,7.20
2022-08-05T12:18:53.688Z,8.52
2022-08-05T12:24:08.441Z,6.50
2022-08-05T12:29:22.807Z,11.25
2022-08-05T12:34:29.766Z,13.77
2022-08-05T12:39:38.640Z,7.90
2022-08-05T12:44:43.242Z,8.77
2022-08-05T12:50:04.782Z,8.90
2022-08-05T12:55:32.750Z,12.75
2022-08-05T13:02:04.870Z,8.70
2022-08-05T13:06:08.232Z,6.25
2022-08-05T13:11:18.322Z,7.43
2022-08-05T13:16:47.523Z,13.25
2022-08-05T13:21:55.944Z,9.00
2022-08-05T13:27:02.838Z,8.60
2022-08-05T13:32:10.185Z,12.98
2022-08-05T13:37:13.787Z,7.13
2022-08-05T13:42:23.989Z,7.57
2022-08-05T13:47:35.860Z,8.38
2022-08-05T13:52:51.669Z,9.45
2022-08-05T13:57:55.461Z,5.97
2022-08-05T14:03:01.063Z,7.18
2022-08-05T14:08:20.262Z,8.60
2022-08-05T14:13:24.269Z,7.57
2022-08-05T14:18:29.792Z,7.05
2022-08-05T14:23:37.283Z,7.10
2022-08-05T14:28:51.954Z,7.90
2022-08-05T14:33:59.513Z,7.25
2022-08-05T14:39:04.661Z,7.75
2022-08-05T14:44:14.440Z,8.73
2022-08-05T14:49:23.711Z,9.82
2022-08-05T14:54:52.802Z,6.18
2022-08-05T14:59:56.978Z,5.95
2022-08-05T15:05:02.355Z,7.82
2022-08-05T15:10:16.563Z,12.02
2022-08-05T15:15:54.943Z,11.18
2022-08-05T15:20:43.579Z,8.27
2022-08-05T15:25:52.692Z,10.00
2022-08-05T15:30:57.379Z,8.27
2022-08-05T15:36:03.667Z,14.13
2022-08-05T15:41:20.730Z,11.68
2022-08-05T15:46:27.129Z,7.55
2022-08-05T15:52:12.568Z,8.15
2022-08-05T15:56:54.548Z,11.60
2022-08-05T16:01:58.433Z,9.40
2022-08-05T16:07:04.725Z,14.35
2022-08-05T16:12:09.693Z,11.77
2022-08-05T16:17:16.542Z,9.80
2022-08-05T16:22:27.593Z,9.38
2022-08-05T16:27:59.721Z,9.97
2022-08-05T16:33:00.599Z,9.63
2022-08-05T16:38:24.406Z,11.02
2022-08-05T16:43:30.038Z,10.18
2022-08-05T16:48:35.371Z,10.18
2022-08-05T16:54:04.927Z,13.07
2022-08-05T16:59:08.683Z,11.60
2022-08-05T17:04:12.061Z,13.23
2022-08-05T17:09:18.784Z,9.35
2022-08-05T17:14:37.496Z,7.18
2022-08-05T17:19:41.928Z,13.25
2022-08-05T17:24:57.481Z,9.20
2022-08-05T17:30:04.586Z,11.13
2022-08-05T17:35:20.575Z,14.52
2022-08-05T17:40:24.517Z,12.30
2022-08-05T17:45:38.252Z,7.40
2022-08-05T17:50:42.313Z,12.77
2022-08-05T17:55:45.993Z,10.52
2022-08-05T18:00:50.692Z,9.95
2022-08-05T18:05:54.601Z,10.80
2022-08-05T18:10:57.909Z,8.75
2022-08-05T18:16:01.798Z,10.75
2022-08-05T18:21:05.932Z,13.77
2022-08-05T18:26:21.964Z,12.25
2022-08-05T18:31:33.072Z,12.43
2022-08-05T18:36:38.835Z,13.48
2022-08-05T18:41:55.434Z,11.77
2022-08-05T18:47:05.056Z,13.77
2022-08-05T18:52:11.038Z,12.88
2022-08-05T18:57:15.698Z,15.45
2022-08-05T19:02:28.198Z,14.38
2022-08-05T19:07:46.349Z,9.68
2022-08-05T19:12:50.507Z,10.82
2022-08-05T19:18:08.596Z,10.30
2022-08-05T19:24:03.622Z,16.63
2022-08-05T19:28:41.985Z,12.18
2022-08-05T19:33:48.751Z,18.90
2022-08-05T19:39:01.843Z,12.48
2022-08-05T19:44:13.459Z,9.95
2022-08-05T19:49:18.238Z,10.88
2022-08-05T19:54:29.535Z,16.00
2022-08-05T20:00:00.902Z,13.75
2022-08-05T20:05:00.129Z,14.55
2022-08-05T20:10:13.507Z,12.38
2022-08-05T20:15:48.124Z,12.63
2022-08-05T20:20:45.739Z,14.50
2022-08-05T20:25:52.310Z,14.73
2022-08-05T20:30:55.853Z,14.40
2022-08-05T20:36:00.178Z,14.98
2022-08-05T20:41:08.095Z,14.63
2022-08-05T20:46:12.420Z,13.10
2022-08-05T20:51:22.448Z,11.15
2022-08-05T20:56:29.126Z,14.15
2022-08-05T21:01:38.172Z,13.73
2022-08-05T21:06:45.253Z,20.27
2022-08-05T21:12:07.388Z,14.52
2022-08-05T21:17:13.537Z,16.75
2022-08-05T21:22:17.590Z,16.85
2022-08-05T21:27:25.217Z,13.35
2022-08-05T21:32:30.519Z,20.13
2022-08-05T21:37:35.134Z,12.68
2022-08-05T21:42:45.754Z,16.00
2022-08-05T21:47:57.052Z,13.25
2022-08-05T21:53:08.469Z,11.98
2022-08-05T21:58:30.709Z,15.63
2022-08-05T22:03:48.560Z,15.52
2022-08-05T22:08:52.879Z,12.63
2022-08-05T22:14:33.884Z,15.88
2022-08-05T22:20:00.696Z,14.13
2022-08-05T22:24:52.512Z,13.63
2022-08-05T22:29:58.151Z,14.35
2022-08-05T22:35:01.466Z,15.00
2022-08-05T22:40:07.232Z,12.70
2022-08-05T22:45:11.229Z,11.75
2022-08-05T22:50:18.526Z,17.13
2022-08-05T22:55:26.707Z,16.23
2022-08-05T23:00:40.883Z,16.63
2022-08-05T23:05:44.550Z,15.15
2022-08-05T23:10:50.902Z,13.98
2022-08-05T23:15:59.599Z,17.98
2022-08-05T23:21:02.952Z,20.10
2022-08-05T23:26:06.724Z,15.25
2022-08-05T23:31:17.051Z,15.35
2022-08-05T23:36:28.231Z,17.98
2022-08-05T23:41:34.269Z,15.38
2022-08-05T23:46:40.779Z,19.23
2022-08-05T23:51:45.948Z,16.85
2022-08-05T23:57:03.460Z,21.85
